sensor_id;sensor_type;location;lat;lon;timestamp;P1;durP1;ratioP1;P2;durP2;ratioP2
16673;SDS011;8450;52.654;10.326;2023-07-28T07:07:48;13.70;;;10.50;;
16673;SDS011;8450;52.654;10.326;2023-07-28T07:10:14;13.67;;;10.10;;
16673;SDS011;8450;52.654;10.326;2023-07-28T07:12:40;11.67;;;9.90;;
16673;SDS011;8450;52.654;10.326;2023-07-28T08:17:32;6.23;;;5.63;;
16673;SDS011;8450;52.654;10.326;2023-07-28T08:19:57;6.57;;;5.83;;
16673;SDS011;8450;52.654;10.326;2023-07-28T08:22:23;7.10;;;6.00;;
16673;SDS011;8450;52.654;10.326;2023-07-28T08:24:50;5.80;;;5.30;;
16673;SDS011;8450;52.654;10.326;2023-07-28T08:58:21;4.40;;;4.00;;
16673;SDS011;8450;52.654;10.326;2023-07-28T09:00:49;4.03;;;3.73;;
16673;SDS011;8450;52.654;10.326;2023-07-28T09:03:16;4.80;;;4.40;;
16673;SDS011;8450;52.654;10.326;2023-07-28T09:37:46;6.10;;;5.60;;
16673;SDS011;8450;52.654;10.326;2023-07-28T09:40:18;5.70;;;5.20;;
16673;SDS011;8450;52.654;10.326;2023-07-28T09:42:46;5.80;;;5.40;;
16673;SDS011;8450;52.654;10.326;2023-07-28T09:45:17;5.70;;;5.20;;
16673;SDS011;8450;52.654;10.326;2023-07-28T09:47:44;6.13;;;5.63;;
16673;SDS011;8450;52.654;10.326;2023-07-28T09:50:11;6.17;;;5.30;;
16673;SDS011;8450;52.654;10.326;2023-07-28T09:52:43;6.03;;;5.43;;
16673;SDS011;8450;52.654;10.326;2023-07-28T13:15:34;4.30;;;4.00;;
16673;SDS011;8450;52.654;10.326;2023-07-28T13:18:00;4.47;;;4.07;;
16673;SDS011;8450;52.654;10.326;2023-07-28T13:20:25;4.73;;;3.90;;
16673;SDS011;8450;52.654;10.326;2023-07-28T13:22:51;4.63;;;4.23;;
16673;SDS011;8450;52.654;10.326;2023-07-28T13:25:17;5.20;;;4.80;;
16673;SDS011;8450;52.654;10.326;2023-07-28T13:27:43;5.10;;;4.60;;
16673;SDS011;8450;52.654;10.326;2023-07-28T13:30:09;4.80;;;4.43;;
16673;SDS011;8450;52.654;10.326;2023-07-28T13:32:35;5.53;;;4.73;;
16673;SDS011;8450;52.654;10.326;2023-07-28T13:35:01;4.23;;;3.93;;
16673;SDS011;8450;52.654;10.326;2023-07-28T13:37:27;4.60;;;4.20;;
16673;SDS011;8450;52.654;10.326;2023-07-28T13:39:53;4.57;;;4.23;;
16673;SDS011;8450;52.654;10.326;2023-07-28T13:42:18;4.40;;;4.00;;
16673;SDS011;8450;52.654;10.326;2023-07-28T13:44:44;4.73;;;4.13;;
16673;SDS011;8450;52.654;10.326;2023-07-28T13:47:14;4.57;;;4.17;;
16673;SDS011;8450;52.654;10.326;2023-07-28T13:49:40;4.90;;;4.60;;
16673;SDS011;8450;52.654;10.326;2023-07-28T13:52:06;4.90;;;4.50;;
16673;SDS011;8450;52.654;10.326;2023-07-28T13:54:32;4.93;;;4.53;;
16673;SDS011;8450;52.654;10.326;2023-07-28T13:56:58;4.90;;;4.60;;
16673;SDS011;8450;52.654;10.326;2023-07-28T13:59:24;4.60;;;4.20;;
16673;SDS011;8450;52.654;10.326;2023-07-28T14:01:49;4.97;;;4.57;;
16673;SDS011;8450;52.654;10.326;2023-07-28T14:04:15;5.67;;;5.17;;
16673;SDS011;8450;52.654;10.326;2023-07-28T14:06:41;5.20;;;4.73;;
16673;SDS011;8450;52.654;10.326;2023-07-28T14:09:07;5.30;;;4.90;;
16673;SDS011;8450;52.654;10.326;2023-07-28T14:11:33;5.03;;;4.63;;
16673;SDS011;8450;52.654;10.326;2023-07-28T14:13:59;5.73;;;4.83;;
16673;SDS011;8450;52.654;10.326;2023-07-28T14:16:26;4.47;;;4.13;;
16673;SDS011;8450;52.654;10.326;2023-07-28T14:18:51;4.87;;;4.37;;
16673;SDS011;8450;52.654;10.326;2023-07-28T14:21:17;5.13;;;4.73;;
16673;SDS011;8450;52.654;10.326;2023-07-28T14:23:43;4.67;;;4.27;;
16673;SDS011;8450;52.654;10.326;2023-07-28T14:26:09;4.73;;;4.10;;
16673;SDS011;8450;52.654;10.326;2023-07-28T14:28:35;5.80;;;4.37;;
16673;SDS011;8450;52.654;10.326;2023-07-28T14:31:01;5.43;;;4.60;;
16673;SDS011;8450;52.654;10.326;2023-07-28T14:33:27;5.00;;;4.20;;
16673;SDS011;8450;52.654;10.326;2023-07-28T14:35:52;4.90;;;4.50;;
16673;SDS011;8450;52.654;10.326;2023-07-28T14:38:18;4.57;;;4.20;;
16673;SDS011;8450;52.654;10.326;2023-07-28T14:40:45;5.13;;;4.13;;
16673;SDS011;8450;52.654;10.326;2023-07-28T14:43:15;4.67;;;4.37;;
16673;SDS011;8450;52.654;10.326;2023-07-28T14:45:41;4.20;;;3.90;;
16673;SDS011;8450;52.654;10.326;2023-07-28T14:48:23;4.27;;;3.97;;
16673;SDS011;8450;52.654;10.326;2023-07-28T14:50:49;4.73;;;4.33;;
16673;SDS011;8450;52.654;10.326;2023-07-28T14:53:28;4.60;;;3.80;;
16673;SDS011;8450;52.654;10.326;2023-07-28T14:55:54;3.67;;;3.47;;
